createdAt,value
2019-05-23T00:01:49.698Z,11.53
2019-05-23T00:04:27.957Z,11.50
2019-05-23T00:06:58.683Z,10.67
2019-05-23T00:09:27.419Z,10.98
2019-05-23T00:12:09.637Z,10.97
2019-05-23T00:14:43.795Z,10.73
2019-05-23T00:17:18.600Z,11.80
2019-05-23T00:19:47.816Z,10.53
2019-05-23T00:22:16.718Z,11.97
2019-05-23T00:24:47.583Z,11.23
2019-05-23T00:27:16.690Z,10.13
2019-05-23T00:29:47.476Z,11.23
2019-05-23T00:32:29.438Z,11.53
2019-05-23T00:34:59.221Z,10.40
2019-05-23T00:37:29.953Z,10.67
2019-05-23T00:39:58.856Z,11.30
2019-05-23T00:42:28.639Z,10.60
2019-05-23T00:44:58.930Z,10.50
2019-05-23T00:47:28.367Z,12.67
2019-05-23T00:49:58.204Z,10.53
2019-05-23T00:52:27.643Z,11.90
2019-05-23T00:54:58.044Z,10.90
2019-05-23T00:57:27.559Z,13.07
2019-05-23T00:59:58.450Z,10.73
2019-05-23T01:02:27.289Z,10.57
2019-05-23T01:04:56.298Z,11.33
2019-05-23T01:07:25.704Z,10.93
2019-05-23T01:09:54.612Z,10.03
2019-05-23T01:12:24.907Z,12.47
2019-05-23T01:14:53.904Z,13.00
2019-05-23T01:17:24.835Z,12.13
2019-05-23T01:19:54.435Z,11.17
2019-05-23T01:22:24.701Z,10.83
2019-05-23T01:24:55.946Z,11.20
2019-05-23T01:27:24.760Z,10.60
2019-05-23T01:29:55.261Z,12.30
2019-05-23T01:32:43.213Z,11.27
2019-05-23T01:35:13.782Z,13.27
2019-05-23T01:37:42.897Z,11.23
2019-05-23T01:40:13.495Z,11.97
2019-05-23T01:42:43.678Z,10.17
2019-05-23T01:45:14.283Z,15.80
2019-05-23T01:47:43.682Z,11.03
2019-05-23T01:50:12.899Z,10.27
2019-05-23T01:52:42.499Z,11.67
2019-05-23T01:55:11.823Z,11.93
2019-05-23T01:57:40.526Z,9.90
2019-05-23T02:00:11.983Z,13.87
2019-05-23T02:02:41.169Z,12.53
2019-05-23T02:05:11.507Z,11.33
2019-05-23T02:07:40.211Z,10.63
2019-05-23T02:10:10.225Z,10.63
2019-05-23T02:12:39.129Z,10.97
2019-05-23T02:15:09.383Z,12.83
2019-05-23T02:17:40.271Z,12.43
2019-05-23T02:20:10.247Z,11.40
2019-05-23T02:22:39.807Z,11.10
2019-05-23T02:25:09.934Z,11.30
2019-05-23T02:27:40.137Z,13.40
2019-05-23T02:30:30.149Z,11.27
2019-05-23T02:32:41.729Z,11.40
2019-05-23T02:35:12.568Z,12.73
2019-05-23T02:37:57.209Z,13.23
2019-05-23T02:40:37.231Z,10.10
2019-05-23T02:43:06.759Z,11.17
2019-05-23T02:45:45.198Z,10.37
2019-05-23T02:48:19.780Z,11.03
2019-05-23T02:50:50.810Z,12.00
2019-05-23T02:53:22.229Z,15.10
2019-05-23T02:55:54.153Z,10.87
2019-05-23T02:58:27.930Z,10.43
2019-05-23T03:01:06.079Z,17.47
2019-05-23T03:03:36.871Z,12.30
2019-05-23T03:06:09.667Z,12.33
2019-05-23T03:08:39.775Z,10.07
2019-05-23T03:11:24.754Z,11.03
2019-05-23T03:13:53.492Z,13.90
2019-05-23T03:16:23.915Z,11.90
2019-05-23T03:18:57.954Z,11.43
2019-05-23T03:21:26.746Z,11.20
2019-05-23T03:23:57.883Z,13.85
2019-05-23T03:27:00.015Z,12.37
2019-05-23T03:29:30.454Z,13.60
2019-05-23T03:32:15.167Z,12.70
2019-05-23T03:34:46.756Z,11.30
2019-05-23T03:37:17.053Z,10.23
2019-05-23T03:39:46.419Z,11.67
2019-05-23T03:42:15.770Z,12.67
2019-05-23T03:44:46.903Z,10.33
2019-05-23T03:47:18.135Z,10.27
2019-05-23T03:49:48.168Z,11.53
2019-05-23T03:52:19.062Z,10.33
2019-05-23T03:54:50.214Z,10.87
2019-05-23T03:57:25.327Z,10.80
2019-05-23T03:59:52.722Z,10.10
2019-05-23T04:02:25.939Z,10.23
2019-05-23T04:04:57.249Z,12.20
2019-05-23T04:07:26.868Z,11.20
2019-05-23T04:09:56.255Z,10.87
2019-05-23T04:12:25.593Z,11.70
2019-05-23T04:14:55.330Z,11.73
2019-05-23T04:17:24.707Z,11.17
2019-05-23T04:19:53.959Z,10.50
2019-05-23T04:22:23.699Z,11.83
2019-05-23T04:24:53.057Z,10.60
2019-05-23T04:27:22.336Z,10.40
2019-05-23T04:29:51.562Z,11.07
2019-05-23T04:32:20.976Z,10.17
2019-05-23T04:34:50.629Z,11.57
2019-05-23T04:37:19.878Z,10.87
2019-05-23T04:39:51.073Z,11.00
2019-05-23T04:42:20.718Z,10.30
2019-05-23T04:44:50.090Z,10.80
2019-05-23T04:47:19.774Z,10.43
2019-05-23T04:49:49.261Z,10.80
2019-05-23T04:52:18.536Z,12.43
2019-05-23T04:54:48.300Z,12.40
2019-05-23T04:57:17.864Z,12.20
2019-05-23T04:59:48.027Z,11.07
2019-05-23T05:02:26.277Z,10.80
2019-05-23T05:04:48.922Z,10.30
2019-05-23T05:07:18.564Z,9.67
2019-05-23T05:09:48.278Z,10.83
2019-05-23T05:12:18.434Z,10.80
2019-05-23T05:14:48.457Z,11.28
2019-05-23T05:17:18.828Z,11.08
2019-05-23T05:19:48.122Z,11.18
2019-05-23T05:22:17.472Z,11.93
2019-05-23T05:24:46.710Z,10.93
2019-05-23T05:27:16.398Z,11.60
2019-05-23T05:29:45.706Z,11.17
2019-05-23T05:32:15.686Z,10.37
2019-05-23T05:34:44.969Z,10.27
2019-05-23T05:37:14.209Z,10.90
2019-05-23T05:39:44.009Z,11.73
2019-05-23T05:42:13.618Z,13.27
2019-05-23T05:44:42.946Z,12.73
2019-05-23T05:47:12.891Z,13.10
2019-05-23T05:49:42.541Z,11.93
2019-05-23T05:52:12.767Z,10.90
2019-05-23T05:54:42.109Z,10.20
2019-05-23T05:57:11.371Z,13.13
2019-05-23T05:59:40.622Z,9.77
2019-05-23T06:02:12.390Z,12.10
2019-05-23T06:04:41.993Z,10.70
2019-05-23T06:07:32.932Z,11.33
2019-05-23T06:10:05.073Z,13.40
2019-05-23T06:12:34.781Z,10.33
2019-05-23T06:15:05.060Z,10.70
2019-05-23T06:17:34.763Z,11.20
2019-05-23T06:20:04.667Z,13.00
2019-05-23T06:22:34.366Z,13.33
2019-05-23T06:25:04.743Z,13.27
2019-05-23T06:27:34.775Z,13.07
2019-05-23T06:30:05.871Z,12.57
2019-05-23T06:32:35.550Z,14.53
2019-05-23T06:35:05.594Z,13.23
2019-05-23T06:37:35.405Z,14.77
2019-05-23T06:40:05.929Z,12.53
2019-05-23T06:42:35.742Z,11.00
2019-05-23T06:45:05.944Z,10.20
2019-05-23T06:47:35.462Z,12.33
2019-05-23T06:50:08.613Z,11.27
2019-05-23T06:52:37.977Z,11.07
2019-05-23T06:55:07.391Z,10.60
2019-05-23T06:57:36.647Z,10.30
2019-05-23T07:00:06.718Z,16.07
2019-05-23T07:02:36.040Z,58.20
2019-05-23T07:05:05.888Z,10.97
2019-05-23T07:07:36.000Z,8.87
2019-05-23T07:10:06.777Z,8.63
2019-05-23T07:12:36.428Z,8.83
2019-05-23T07:15:06.310Z,8.97
2019-05-23T07:17:36.010Z,10.53
2019-05-23T07:20:06.172Z,13.03
2019-05-23T07:22:35.566Z,11.93
2019-05-23T07:25:06.406Z,11.17
2019-05-23T07:27:35.655Z,9.80
2019-05-23T07:30:07.538Z,11.83
2019-05-23T07:32:37.365Z,13.33
2019-05-23T07:35:07.381Z,11.50
2019-05-23T07:37:36.654Z,9.73
2019-05-23T07:40:06.422Z,14.13
2019-05-23T07:42:35.687Z,9.70
2019-05-23T07:45:07.038Z,13.73
2019-05-23T07:47:39.887Z,10.10
2019-05-23T07:50:07.668Z,11.67
2019-05-23T07:52:36.916Z,10.50
2019-05-23T07:55:14.451Z,11.03
2019-05-23T07:57:44.430Z,9.43
2019-05-23T08:00:20.682Z,11.10
2019-05-23T08:02:51.561Z,10.07
2019-05-23T08:05:22.905Z,10.37
2019-05-23T08:07:52.800Z,13.80
2019-05-23T08:10:33.099Z,12.07
2019-05-23T08:12:54.807Z,12.07
2019-05-23T08:15:24.585Z,9.17
2019-05-23T08:17:53.847Z,10.03
2019-05-23T08:20:23.642Z,11.53
2019-05-23T08:22:52.920Z,10.40
2019-05-23T08:25:22.600Z,12.30
2019-05-23T08:27:52.389Z,9.13
2019-05-23T08:30:21.995Z,12.03
2019-05-23T08:32:51.319Z,8.97
2019-05-23T08:35:20.800Z,10.13
2019-05-23T08:37:50.470Z,13.80
2019-05-23T08:40:21.610Z,10.80
2019-05-23T08:42:51.515Z,10.10
2019-05-23T08:45:22.057Z,11.87
2019-05-23T08:47:51.340Z,12.00
2019-05-23T08:50:21.085Z,9.20
2019-05-23T08:52:50.815Z,12.00
2019-05-23T08:55:23.526Z,10.53
2019-05-23T08:57:54.385Z,9.37
2019-05-23T09:00:26.912Z,8.63
2019-05-23T09:02:58.760Z,8.83
2019-05-23T09:05:30.319Z,10.80
2019-05-23T09:07:59.939Z,9.23
2019-05-23T09:10:31.020Z,12.87
2019-05-23T09:13:00.605Z,8.50
2019-05-23T09:15:30.267Z,7.97
2019-05-23T09:17:59.508Z,9.43
2019-05-23T09:20:29.775Z,9.83
2019-05-23T09:22:59.083Z,7.63
2019-05-23T09:25:28.328Z,9.17
2019-05-23T09:27:58.128Z,11.03
2019-05-23T09:30:28.263Z,9.90
2019-05-23T09:32:58.217Z,7.50
2019-05-23T09:35:28.026Z,8.73
2019-05-23T09:38:00.944Z,8.97
2019-05-23T09:40:33.599Z,7.05
2019-05-23T09:43:08.535Z,7.30
2019-05-23T09:45:37.846Z,6.83
2019-05-23T09:48:07.455Z,7.67
2019-05-23T09:50:36.795Z,6.80
2019-05-23T09:53:06.355Z,7.10
2019-05-23T09:55:35.746Z,7.10
2019-05-23T09:58:05.411Z,7.83
2019-05-23T10:00:35.561Z,6.47
2019-05-23T10:03:05.677Z,9.73
2019-05-23T10:05:42.640Z,6.90
2019-05-23T10:08:06.032Z,7.37
2019-05-23T10:10:36.006Z,6.70
2019-05-23T10:13:05.377Z,8.20
2019-05-23T10:15:45.363Z,7.97
2019-05-23T10:18:18.667Z,7.77
2019-05-23T10:20:47.968Z,8.73
2019-05-23T10:23:18.631Z,10.43
2019-05-23T10:25:47.916Z,9.77
2019-05-23T10:28:17.638Z,10.20
2019-05-23T10:30:46.971Z,9.03
2019-05-23T10:33:16.249Z,8.97
2019-05-23T10:35:59.675Z,7.57
2019-05-23T10:38:16.633Z,8.07
2019-05-23T10:40:45.917Z,8.17
2019-05-23T10:43:15.270Z,7.33
2019-05-23T10:45:44.539Z,9.67
2019-05-23T10:48:16.635Z,9.20
2019-05-23T10:50:46.737Z,7.03
2019-05-23T10:53:17.038Z,9.30
2019-05-23T10:55:46.350Z,7.50
2019-05-23T10:58:17.031Z,7.77
2019-05-23T11:00:47.013Z,6.33
2019-05-23T11:03:17.202Z,6.63
2019-05-23T11:05:46.937Z,7.13
2019-05-23T11:08:16.541Z,7.27
2019-05-23T11:10:46.719Z,7.70
2019-05-23T11:13:16.209Z,6.97
2019-05-23T11:15:45.579Z,16.87
2019-05-23T11:18:15.167Z,7.67
2019-05-23T11:20:44.482Z,9.10
2019-05-23T11:23:16.768Z,7.87
2019-05-23T11:25:46.235Z,6.80
2019-05-23T11:28:15.518Z,4.70
2019-05-23T11:30:51.900Z,7.00
2019-05-23T11:33:21.900Z,5.40
2019-05-23T11:35:51.831Z,4.87
2019-05-23T11:38:21.326Z,5.37
2019-05-23T11:40:51.279Z,7.93
2019-05-23T11:43:20.512Z,7.03
2019-05-23T11:46:04.222Z,3.20
2019-05-23T11:48:34.682Z,7.17
2019-05-23T11:51:04.540Z,4.83
2019-05-23T11:53:34.565Z,3.70
2019-05-23T11:56:04.122Z,6.03
2019-05-23T11:58:38.983Z,2.77
2019-05-23T12:01:23.131Z,4.63
2019-05-23T12:03:59.467Z,4.43
2019-05-23T12:06:33.143Z,5.07
2019-05-23T12:09:02.384Z,4.33
2019-05-23T12:11:36.415Z,4.87
2019-05-23T12:14:03.635Z,6.63
2019-05-23T12:16:33.334Z,3.53
2019-05-23T12:19:03.890Z,4.07
2019-05-23T12:21:33.179Z,4.00
2019-05-23T12:24:02.425Z,3.57
2019-05-23T12:26:31.681Z,4.03
2019-05-23T12:29:01.273Z,2.80
2019-05-23T12:31:30.563Z,2.67
2019-05-23T12:34:25.881Z,3.50
2019-05-23T12:37:14.253Z,6.23
2019-05-23T12:39:26.191Z,4.20
2019-05-23T12:41:55.475Z,4.47
2019-05-23T12:44:24.835Z,2.97
2019-05-23T12:46:54.107Z,2.97
2019-05-23T12:49:37.483Z,4.17
2019-05-23T12:52:09.147Z,2.97
2019-05-23T12:54:38.651Z,3.90
2019-05-23T12:57:08.952Z,3.17
2019-05-23T12:59:38.231Z,4.40
2019-05-23T13:02:11.208Z,4.23
2019-05-23T13:04:40.578Z,3.00
2019-05-23T13:07:10.052Z,3.87
2019-05-23T13:09:39.579Z,3.37
2019-05-23T13:12:09.800Z,3.47
2019-05-23T13:14:58.515Z,3.60
2019-05-23T13:17:26.795Z,3.27
2019-05-23T13:19:56.055Z,2.50
2019-05-23T13:22:25.927Z,2.93
2019-05-23T13:24:58.866Z,3.23
2019-05-23T13:27:28.160Z,2.47
2019-05-23T13:30:01.168Z,3.40
2019-05-23T13:32:30.405Z,2.53
2019-05-23T13:34:59.655Z,4.47
2019-05-23T13:37:29.454Z,2.93
2019-05-23T13:39:58.718Z,3.80
2019-05-23T13:42:28.611Z,2.90
2019-05-23T13:44:58.122Z,3.20
2019-05-23T13:47:31.148Z,4.03
2019-05-23T13:50:00.486Z,3.70
2019-05-23T13:52:30.203Z,2.60
2019-05-23T13:54:59.497Z,2.87
2019-05-23T13:57:28.900Z,3.17
2019-05-23T14:00:18.154Z,2.93
2019-05-23T14:02:47.615Z,2.43
2019-05-23T14:05:19.790Z,2.80
2019-05-23T14:07:49.286Z,2.23
2019-05-23T14:10:19.549Z,2.53
2019-05-23T14:12:49.071Z,3.87
2019-05-23T14:15:21.442Z,2.53
2019-05-23T14:17:50.715Z,2.53
2019-05-23T14:20:21.084Z,3.17
2019-05-23T14:22:55.043Z,2.67
2019-05-23T14:25:24.732Z,2.87
2019-05-23T14:27:59.399Z,3.87
2019-05-23T14:30:45.766Z,3.30
2019-05-23T14:33:26.570Z,3.67
2019-05-23T14:35:56.880Z,2.40
2019-05-23T14:38:30.833Z,5.03
2019-05-23T14:40:59.404Z,2.67
2019-05-23T14:43:28.845Z,2.80
2019-05-23T14:46:06.275Z,3.30
2019-05-23T14:48:45.834Z,4.87
2019-05-23T14:51:49.387Z,2.43
2019-05-23T14:54:27.307Z,2.90
2019-05-23T14:56:56.633Z,13.07
2019-05-23T14:59:26.728Z,3.30
2019-05-23T15:01:56.180Z,2.70
2019-05-23T15:04:25.528Z,2.67
2019-05-23T15:06:54.895Z,3.87
2019-05-23T15:09:24.657Z,5.80
2019-05-23T15:11:54.323Z,2.97
2019-05-23T15:14:24.046Z,2.47
2019-05-23T15:16:53.649Z,2.50
2019-05-23T15:19:39.095Z,2.87
2019-05-23T15:21:53.935Z,3.60
2019-05-23T15:24:23.254Z,3.90
2019-05-23T15:26:52.546Z,4.10
2019-05-23T15:29:21.823Z,3.37
2019-05-23T15:32:01.773Z,2.10
2019-05-23T15:34:22.180Z,4.13
2019-05-23T15:36:51.503Z,3.20
2019-05-23T15:39:23.423Z,2.63
2019-05-23T15:41:52.720Z,2.20
2019-05-23T15:44:26.738Z,2.13
2019-05-23T15:46:53.222Z,2.60
2019-05-23T15:49:22.714Z,4.53
2019-05-23T15:52:01.705Z,3.20
2019-05-23T15:55:02.753Z,3.30
2019-05-23T15:57:43.819Z,3.13
2019-05-23T16:00:35.828Z,4.13
2019-05-23T16:03:15.215Z,2.20
2019-05-23T16:05:45.095Z,2.93
2019-05-23T16:08:15.106Z,2.63
2019-05-23T16:10:45.011Z,2.40
2019-05-23T16:13:14.575Z,5.43
2019-05-23T16:15:43.847Z,2.73
2019-05-23T16:18:13.673Z,4.50
2019-05-23T16:20:43.242Z,3.50
2019-05-23T16:23:12.726Z,3.07
2019-05-23T16:25:41.987Z,2.20
2019-05-23T16:28:11.499Z,2.33
2019-05-23T16:31:00.497Z,3.27
2019-05-23T16:33:29.919Z,3.43
2019-05-23T16:36:01.861Z,2.30
2019-05-23T16:38:33.567Z,2.53
2019-05-23T16:41:02.851Z,2.00
2019-05-23T16:43:34.531Z,5.10
2019-05-23T16:46:04.531Z,4.07
2019-05-23T16:48:35.917Z,2.15
2019-05-23T16:51:05.702Z,2.80
2019-05-23T16:53:40.664Z,2.73
2019-05-23T16:56:18.238Z,3.87
2019-05-23T16:58:57.361Z,3.53
2019-05-23T17:02:06.327Z,1.90
2019-05-23T17:05:09.385Z,3.53
2019-05-23T17:07:54.332Z,6.27
2019-05-23T17:10:33.732Z,2.23
2019-05-23T17:13:07.921Z,3.07
2019-05-23T17:16:00.436Z,3.63
2019-05-23T17:18:53.564Z,3.33
2019-05-23T17:21:41.208Z,3.57
2019-05-23T17:24:27.954Z,3.10
2019-05-23T17:27:05.103Z,2.03
2019-05-23T17:29:49.551Z,3.17
2019-05-23T17:32:22.851Z,2.17
2019-05-23T17:34:55.892Z,2.37
2019-05-23T17:37:26.782Z,2.00
2019-05-23T17:39:56.886Z,3.00
2019-05-23T17:42:26.200Z,3.63
2019-05-23T17:44:55.583Z,4.47
2019-05-23T17:47:25.133Z,4.07
2019-05-23T17:49:54.478Z,3.35
2019-05-23T17:52:24.316Z,3.37
2019-05-23T17:54:55.321Z,2.70
2019-05-23T17:57:24.862Z,3.40
2019-05-23T17:59:55.188Z,3.57
2019-05-23T18:02:25.442Z,4.80
2019-05-23T18:04:55.556Z,3.93
2019-05-23T18:07:26.269Z,3.07
2019-05-23T18:09:56.242Z,5.40
2019-05-23T18:12:26.840Z,3.53
2019-05-23T18:14:56.425Z,4.05
2019-05-23T18:17:27.011Z,3.27
2019-05-23T18:19:58.542Z,4.53
2019-05-23T18:22:29.112Z,5.47
2019-05-23T18:24:59.777Z,2.73
2019-05-23T18:27:30.125Z,2.07
2019-05-23T18:30:00.263Z,3.63
2019-05-23T18:32:29.758Z,4.03
2019-05-23T18:34:59.481Z,2.63
2019-05-23T18:37:28.830Z,1.57
2019-05-23T18:39:58.257Z,2.67
2019-05-23T18:42:28.088Z,4.00
2019-05-23T18:44:57.949Z,2.27
2019-05-23T18:47:34.082Z,2.00
2019-05-23T18:50:04.105Z,2.20
2019-05-23T18:52:33.986Z,3.60
2019-05-23T18:55:03.264Z,3.00
2019-05-23T18:57:33.340Z,2.95
2019-05-23T19:00:02.702Z,3.47
2019-05-23T19:02:32.020Z,3.70
2019-05-23T19:05:02.085Z,6.23
2019-05-23T19:07:31.989Z,3.77
2019-05-23T19:10:01.867Z,7.03
2019-05-23T19:12:31.975Z,9.77
2019-05-23T19:15:02.220Z,5.37
2019-05-23T19:17:31.896Z,5.80
2019-05-23T19:20:01.780Z,3.00
2019-05-23T19:22:31.689Z,3.53
2019-05-23T19:25:04.157Z,3.10
2019-05-23T19:27:33.900Z,4.23
2019-05-23T19:30:03.233Z,2.33
2019-05-23T19:32:32.598Z,2.53
2019-05-23T19:35:01.970Z,4.77
2019-05-23T19:37:36.887Z,4.33
2019-05-23T19:40:06.676Z,3.80
2019-05-23T19:42:36.113Z,5.10
2019-05-23T19:45:14.312Z,4.67
2019-05-23T19:47:43.880Z,6.30
2019-05-23T19:50:15.917Z,3.53
2019-05-23T19:52:46.760Z,3.53
2019-05-23T19:55:16.200Z,3.97
2019-05-23T19:57:45.695Z,2.90
2019-05-23T20:00:17.903Z,5.93
2019-05-23T20:02:50.129Z,3.63
2019-05-23T20:05:30.396Z,4.63
2019-05-23T20:08:11.783Z,3.97
2019-05-23T20:10:43.694Z,3.73
2019-05-23T20:13:13.331Z,2.90
2019-05-23T20:15:45.760Z,4.03
2019-05-23T20:18:14.350Z,4.53
2019-05-23T20:20:43.713Z,3.50
2019-05-23T20:23:15.802Z,3.60
2019-05-23T20:25:46.093Z,4.37
2019-05-23T20:28:16.984Z,5.00
2019-05-23T20:30:56.981Z,4.20
2019-05-23T20:33:27.895Z,3.40
2019-05-23T20:35:57.501Z,3.83
2019-05-23T20:38:27.453Z,3.33
2019-05-23T20:40:57.119Z,5.20
2019-05-23T20:43:27.948Z,5.17
2019-05-23T20:45:58.374Z,4.20
2019-05-23T20:48:27.900Z,4.28
2019-05-23T20:50:57.856Z,4.20
2019-05-23T20:53:27.429Z,3.17
2019-05-23T20:56:15.812Z,6.23
2019-05-23T20:58:52.841Z,3.53
2019-05-23T21:01:27.669Z,3.90
2019-05-23T21:04:05.972Z,4.40
2019-05-23T21:06:35.260Z,4.23
2019-05-23T21:09:06.549Z,11.33
2019-05-23T21:11:35.867Z,4.23
2019-05-23T21:14:05.429Z,5.20
2019-05-23T21:16:34.862Z,4.80
2019-05-23T21:19:04.468Z,4.70
2019-05-23T21:21:33.838Z,3.40
2019-05-23T21:24:03.266Z,3.10
2019-05-23T21:26:35.837Z,3.67
2019-05-23T21:29:07.488Z,5.80
2019-05-23T21:31:37.982Z,6.93
2019-05-23T21:34:07.347Z,6.50
2019-05-23T21:36:36.743Z,3.50
2019-05-23T21:39:09.667Z,4.23
2019-05-23T21:41:40.792Z,3.70
2019-05-23T21:44:10.093Z,4.07
2019-05-23T21:46:39.504Z,5.37
2019-05-23T21:49:09.215Z,4.83
2019-05-23T21:51:38.522Z,5.80
2019-05-23T21:54:07.892Z,3.60
2019-05-23T21:56:37.534Z,3.27
2019-05-23T21:59:17.211Z,3.30
2019-05-23T22:01:46.233Z,4.53
2019-05-23T22:04:33.262Z,3.20
2019-05-23T22:07:03.874Z,5.77
2019-05-23T22:09:33.854Z,6.87
2019-05-23T22:12:03.579Z,4.20
2019-05-23T22:14:57.686Z,4.17
2019-05-23T22:17:28.036Z,4.00
2019-05-23T22:19:57.317Z,5.43
2019-05-23T22:22:42.640Z,3.77
2019-05-23T22:25:15.716Z,3.13
2019-05-23T22:27:44.978Z,5.80
2019-05-23T22:30:17.118Z,4.47
2019-05-23T22:32:47.937Z,4.87
2019-05-23T22:35:19.019Z,5.00
2019-05-23T22:37:48.273Z,5.30
2019-05-23T22:40:17.542Z,4.73
2019-05-23T22:42:46.854Z,4.57
2019-05-23T22:45:19.239Z,4.30
2019-05-23T22:47:48.515Z,4.10
2019-05-23T22:50:17.752Z,3.17
2019-05-23T22:52:47.015Z,6.57
2019-05-23T22:55:16.251Z,4.77
2019-05-23T22:57:45.528Z,4.07
2019-05-23T23:00:39.960Z,9.17
2019-05-23T23:03:09.266Z,6.03
2019-05-23T23:05:38.604Z,3.20
2019-05-23T23:08:08.226Z,4.57
2019-05-23T23:10:38.114Z,7.53
2019-05-23T23:13:07.539Z,3.80
2019-05-23T23:15:37.259Z,3.87
2019-05-23T23:18:07.882Z,3.23
2019-05-23T23:20:37.390Z,5.20
2019-05-23T23:23:08.357Z,5.73
2019-05-23T23:25:38.727Z,5.13
2019-05-23T23:28:09.544Z,3.20
2019-05-23T23:30:40.469Z,6.33
2019-05-23T23:33:10.590Z,4.87
2019-05-23T23:35:47.483Z,5.37
2019-05-23T23:38:18.780Z,6.30
2019-05-23T23:40:48.011Z,7.00
2019-05-23T23:43:17.299Z,3.20
2019-05-23T23:46:04.371Z,3.40
2019-05-23T23:48:51.220Z,3.67
2019-05-23T23:51:38.260Z,4.83
2019-05-23T23:54:25.101Z,5.80
2019-05-23T23:57:12.326Z,4.53
2019-05-23T23:59:40.627Z,7.50
